Time;durP1;ratioP1;P1;durP2;ratioP2;P2;SDS_P1;SDS_P2;PMS_P1;PMS_P2;Temp;Humidity;BMP_temperature;BMP_pressure;BME280_temperature;BME280_humidity;BME280_pressure;Samples;Min_cycle;Max_cycle;Signal;HPM_P1;HPM_P2
2021/10/07 00:02:23;;;;;;;3.25;1.70;;;11.60;95.50;;;;;;4955923;28;20249;-76
2021/10/07 00:04:50;;;;;;;5.57;2.38;;;11.70;95.90;;;;;;4956802;29;20258;-79
2021/10/07 00:07:17;;;;;;;3.40;1.83;;;11.70;95.40;;;;;;4956130;29;20223;-76
2021/10/07 00:09:46;;;;;;;3.65;2.10;;;11.70;95.50;;;;;;4956449;29;20213;-78
2021/10/07 00:12:13;;;;;;;2.92;1.85;;;11.60;95.50;;;;;;4956749;28;20296;-79
2021/10/07 00:14:39;;;;;;;4.53;2.45;;;11.70;95.60;;;;;;4957120;29;20215;-78
2021/10/07 00:17:06;;;;;;;2.10;1.92;;;11.60;95.50;;;;;;4956046;29;20216;-77
2021/10/07 00:19:33;;;;;;;2.90;1.90;;;11.60;95.60;;;;;;4956440;29;20281;-79
2021/10/07 00:22:00;;;;;;;2.40;2.10;;;11.60;95.60;;;;;;4956395;28;20233;-79
2021/10/07 00:24:28;;;;;;;5.57;2.28;;;11.50;96.00;;;;;;4955899;29;20213;-79
2021/10/07 00:26:57;;;;;;;3.50;2.05;;;11.50;96.20;;;;;;4955982;29;20304;-77
2021/10/07 00:32:09;;;;;;;3.50;1.95;;;11.50;96.50;;;;;;4954371;28;20280;-77
2021/10/07 00:35:03;;;;;;;2.92;2.30;;;11.40;96.70;;;;;;4956673;29;20200;-77
2021/10/07 00:40:11;;;;;;;5.90;2.72;;;11.20;97.70;;;;;;4967327;29;20201;-78
2021/10/07 00:42:39;;;;;;;4.32;2.00;;;11.20;98.30;;;;;;4970926;28;20288;-78
2021/10/07 00:45:08;;;;;;;3.65;2.58;;;11.10;98.40;;;;;;4977935;28;20296;-78
2021/10/07 00:47:35;;;;;;;4.80;2.10;;;11.00;99.10;;;;;;4978691;28;20272;-82
2021/10/07 00:50:03;;;;;;;2.75;2.22;;;10.90;99.30;;;;;;4979970;29;20223;-80
2021/10/07 00:52:30;;;;;;;4.38;2.47;;;10.90;99.90;;;;;;4966589;28;20272;-78
2021/10/07 00:54:58;;;;;;;3.03;2.05;;;10.90;99.90;;;;;;4970847;29;20232;-78
2021/10/07 00:57:25;;;;;;;2.42;2.20;;;10.90;99.90;;;;;;4980122;28;20204;-78
2021/10/07 00:59:53;;;;;;;3.88;2.13;;;10.90;99.90;;;;;;4981778;28;20229;-79
2021/10/07 01:02:20;;;;;;;2.10;1.92;;;10.90;99.90;;;;;;4981682;28;20229;-78
2021/10/07 01:04:47;;;;;;;2.53;2.30;;;10.90;99.90;;;;;;4971031;29;20213;-78
2021/10/07 01:07:16;;;;;;;4.72;2.50;;;10.80;99.90;;;;;;4979760;29;20233;-77
2021/10/07 01:09:43;;;;;;;3.20;2.13;;;10.80;99.90;;;;;;4975191;29;20217;-79
2021/10/07 01:12:10;;;;;;;6.05;2.00;;;10.70;99.90;;;;;;4968044;28;20402;-79
2021/10/07 01:14:43;;;;;;;5.50;2.60;;;10.60;99.90;;;;;;4970965;29;20218;-80
2021/10/07 01:17:12;;;;;;;3.38;2.50;;;10.60;99.90;;;;;;4970311;29;20265;-77
2021/10/07 01:19:41;;;;;;;3.83;2.50;;;10.50;99.90;;;;;;4973154;29;20233;-80
2021/10/07 01:22:08;;;;;;;4.43;2.67;;;10.50;99.90;;;;;;4970822;28;20232;-78
2021/10/07 01:24:35;;;;;;;3.38;2.33;;;10.60;99.90;;;;;;4971867;29;20217;-80
2021/10/07 01:27:03;;;;;;;4.68;2.78;;;10.60;99.90;;;;;;4973432;29;20237;-79
2021/10/07 01:29:29;;;;;;;5.82;2.78;;;10.60;99.90;;;;;;4973050;29;20213;-81
2021/10/07 01:31:56;;;;;;;2.78;2.38;;;10.60;99.90;;;;;;4972190;28;20241;-81
2021/10/07 01:34:24;;;;;;;2.60;2.40;;;10.60;99.90;;;;;;4971768;29;20218;-80
2021/10/07 01:36:53;;;;;;;4.40;2.88;;;10.60;99.90;;;;;;4974485;29;20241;-81
2021/10/07 01:39:21;;;;;;;3.80;2.65;;;10.60;99.90;;;;;;4968375;29;20269;-81
2021/10/07 01:41:48;;;;;;;3.55;2.45;;;10.70;99.90;;;;;;4965565;28;20237;-81
2021/10/07 01:44:17;;;;;;;10.25;3.40;;;10.70;99.90;;;;;;4973943;29;20236;-80
2021/10/07 01:46:44;;;;;;;2.92;2.63;;;10.70;99.90;;;;;;4973521;29;20237;-80
2021/10/07 01:49:11;;;;;;;8.38;4.18;;;10.80;99.90;;;;;;4968308;29;20720;-79
2021/10/07 01:51:38;;;;;;;3.13;2.72;;;10.80;99.90;;;;;;4960233;28;20315;-78
2021/10/07 01:54:07;;;;;;;3.72;3.03;;;10.80;99.90;;;;;;4958207;29;20215;-77
2021/10/07 01:56:34;;;;;;;4.70;3.13;;;10.80;99.90;;;;;;4961446;29;20300;-80
2021/10/07 01:59:02;;;;;;;4.55;3.10;;;10.70;99.90;;;;;;4973469;28;20446;-78
2021/10/07 02:01:29;;;;;;;9.45;2.97;;;10.70;99.90;;;;;;4971126;28;20229;-79
2021/10/07 02:03:56;;;;;;;6.35;2.80;;;10.80;99.90;;;;;;4969623;29;20232;-81
2021/10/07 02:06:23;;;;;;;3.80;2.45;;;10.80;99.90;;;;;;4971056;29;20268;-80
2021/10/07 02:08:49;;;;;;;6.95;3.70;;;10.80;99.90;;;;;;4970409;29;20256;-81
2021/10/07 02:11:18;;;;;;;4.20;2.60;;;10.80;99.90;;;;;;4971841;28;20878;-80
2021/10/07 02:13:44;;;;;;;3.72;3.35;;;10.80;99.90;;;;;;4963916;29;20221;-81
2021/10/07 02:16:11;;;;;;;8.80;3.10;;;10.90;99.90;;;;;;4962500;29;20209;-81
2021/10/07 02:18:38;;;;;;;5.70;3.00;;;11.00;99.90;;;;;;4961852;29;20234;-81
2021/10/07 02:21:05;;;;;;;3.45;3.15;;;11.00;99.90;;;;;;4959994;28;20701;-78
2021/10/07 02:23:32;;;;;;;3.60;2.60;;;11.00;99.90;;;;;;4962969;29;20233;-78
2021/10/07 02:25:59;;;;;;;4.25;3.08;;;11.00;99.90;;;;;;4962361;29;20320;-79
2021/10/07 02:28:28;;;;;;;3.10;2.78;;;11.00;99.90;;;;;;4962088;29;20550;-79
2021/10/07 02:30:57;;;;;;;5.13;2.60;;;11.00;99.90;;;;;;4962204;29;20277;-78
2021/10/07 02:33:24;;;;;;;4.95;3.17;;;11.00;99.90;;;;;;4962869;29;20205;-78
2021/10/07 02:35:51;;;;;;;5.80;3.58;;;11.00;99.90;;;;;;4962794;29;20207;-79
2021/10/07 02:38:18;;;;;;;5.18;2.97;;;11.00;99.90;;;;;;4962216;29;20221;-78
2021/10/07 02:40:45;;;;;;;6.07;3.70;;;10.90;99.90;;;;;;4961900;29;20210;-79
2021/10/07 02:43:12;;;;;;;4.35;2.92;;;11.00;99.90;;;;;;4961701;28;20241;-78
2021/10/07 02:45:40;;;;;;;4.93;3.60;;;11.00;99.90;;;;;;4962346;29;20298;-78
2021/10/07 02:48:07;;;;;;;4.85;3.70;;;11.00;99.90;;;;;;4962273;29;20213;-79
2021/10/07 02:50:34;;;;;;;5.53;3.67;;;11.00;99.90;;;;;;4962172;29;20690;-80
2021/10/07 02:53:01;;;;;;;7.97;4.20;;;10.90;99.90;;;;;;4962002;28;20608;-80
2021/10/07 02:55:28;;;;;;;4.90;3.40;;;11.00;99.90;;;;;;4963951;29;20256;-79
2021/10/07 02:57:55;;;;;;;6.00;3.85;;;11.00;99.90;;;;;;4969342;29;20216;-79
2021/10/07 03:00:21;;;;;;;5.97;3.53;;;11.00;99.90;;;;;;4972665;29;20217;-81
2021/10/07 03:02:50;;;;;;;4.38;3.90;;;11.00;99.90;;;;;;4962250;28;20230;-80
2021/10/07 03:05:17;;;;;;;6.72;3.72;;;11.00;99.90;;;;;;4964634;29;20701;-78
2021/10/07 03:07:44;;;;;;;5.15;4.28;;;11.00;99.90;;;;;;4964320;29;20241;-80
2021/10/07 03:10:11;;;;;;;9.43;4.00;;;11.00;99.90;;;;;;4978808;28;20196;-81
2021/10/07 03:12:38;;;;;;;4.70;3.72;;;10.90;99.90;;;;;;4980176;28;20247;-81
2021/10/07 03:15:06;;;;;;;7.55;3.97;;;10.90;99.90;;;;;;4980029;28;20559;-75
2021/10/07 03:17:33;;;;;;;4.95;4.45;;;11.00;99.90;;;;;;4979934;28;20217;-79
2021/10/07 03:20:01;;;;;;;6.70;4.15;;;11.00;99.90;;;;;;4977503;28;20217;-81
2021/10/07 03:22:28;;;;;;;8.13;4.15;;;11.10;99.90;;;;;;4974859;28;20252;-81
2021/10/07 03:24:55;;;;;;;3.78;3.47;;;11.10;99.90;;;;;;4976702;29;20280;-80
2021/10/07 03:27:22;;;;;;;9.35;4.40;;;11.10;99.90;;;;;;4975431;29;20225;-79
2021/10/07 03:29:49;;;;;;;5.78;3.40;;;11.10;99.90;;;;;;4974134;29;20223;-81
2021/10/07 03:32:16;;;;;;;6.07;4.10;;;11.10;99.90;;;;;;4972038;28;20253;-81
2021/10/07 03:34:43;;;;;;;4.40;3.60;;;11.10;99.90;;;;;;4967299;29;20580;-79
2021/10/07 03:37:11;;;;;;;5.65;4.20;;;11.10;99.90;;;;;;4964109;29;20272;-80
2021/10/07 03:39:46;;;;;;;6.85;4.00;;;11.10;99.90;;;;;;4961950;29;20213;-80
2021/10/07 03:42:14;;;;;;;5.20;4.20;;;11.00;99.90;;;;;;4974518;23;20332;-79
2021/10/07 03:44:41;;;;;;;6.60;3.65;;;11.00;99.90;;;;;;4939656;29;20236;-78
2021/10/07 03:47:08;;;;;;;4.97;3.17;;;11.10;99.90;;;;;;4940731;29;20213;-79
2021/10/07 03:49:35;;;;;;;6.25;3.75;;;11.10;99.90;;;;;;4942055;29;20220;-79
2021/10/07 03:52:02;;;;;;;5.30;3.67;;;11.00;99.90;;;;;;4958304;29;20222;-79
2021/10/07 03:54:30;;;;;;;6.43;3.90;;;11.00;99.90;;;;;;4953007;29;20285;-79
2021/10/07 03:56:57;;;;;;;4.43;3.42;;;11.00;99.90;;;;;;4960099;29;20217;-78
2021/10/07 03:59:26;;;;;;;6.25;3.70;;;11.00;99.90;;;;;;4959160;29;20226;-78
2021/10/07 04:01:53;;;;;;;9.20;3.83;;;11.00;99.90;;;;;;4950815;29;20232;-78
2021/10/07 04:04:20;;;;;;;5.22;3.40;;;11.00;99.90;;;;;;4938553;29;20217;-80
2021/10/07 04:06:46;;;;;;;5.68;3.72;;;11.00;99.90;;;;;;4937792;29;20233;-79
2021/10/07 04:09:13;;;;;;;4.20;3.58;;;11.00;99.90;;;;;;4937690;29;20214;-78
2021/10/07 04:11:41;;;;;;;5.35;3.38;;;11.00;99.90;;;;;;4937853;29;20240;-78
2021/10/07 04:14:08;;;;;;;4.15;3.38;;;11.00;99.90;;;;;;4937778;29;20221;-78
2021/10/07 04:16:35;;;;;;;4.25;3.58;;;11.00;99.90;;;;;;4937563;29;20213;-78
2021/10/07 04:19:02;;;;;;;6.65;4.03;;;11.00;99.90;;;;;;4937441;29;20316;-78
2021/10/07 04:21:29;;;;;;;8.93;3.92;;;10.90;99.90;;;;;;4936964;29;20256;-79
2021/10/07 04:23:56;;;;;;;5.35;4.13;;;10.90;99.90;;;;;;4937877;29;20304;-79
2021/10/07 04:26:23;;;;;;;6.88;4.07;;;11.00;99.90;;;;;;4940001;29;20313;-78
2021/10/07 04:28:51;;;;;;;4.10;3.80;;;11.00;99.90;;;;;;4946876;29;20700;-79
2021/10/07 04:31:18;;;;;;;5.32;4.70;;;11.00;99.90;;;;;;4947439;29;20221;-79
2021/10/07 04:33:44;;;;;;;4.68;3.90;;;11.00;99.90;;;;;;4944402;29;20286;-78
2021/10/07 04:36:11;;;;;;;5.65;4.40;;;11.00;99.90;;;;;;4937862;29;20249;-80
2021/10/07 04:38:38;;;;;;;7.88;4.63;;;11.10;99.90;;;;;;4940413;29;20257;-79
2021/10/07 04:41:05;;;;;;;6.00;4.00;;;11.10;99.90;;;;;;4944710;29;20210;-79
2021/10/07 04:43:32;;;;;;;6.45;4.57;;;11.10;99.90;;;;;;4949684;29;20256;-78
2021/10/07 04:46:00;;;;;;;7.00;5.38;;;11.10;99.90;;;;;;4944272;29;20224;-79
2021/10/07 04:48:27;;;;;;;6.30;4.68;;;11.10;99.90;;;;;;4948857;29;20214;-78
2021/10/07 04:50:54;;;;;;;6.32;4.35;;;11.10;99.90;;;;;;4952640;29;20214;-78
2021/10/07 04:53:21;;;;;;;6.65;5.43;;;11.10;99.90;;;;;;4946570;29;20237;-79
2021/10/07 04:55:50;;;;;;;7.22;4.93;;;11.10;99.90;;;;;;4958122;29;20206;-78
2021/10/07 04:58:18;;;;;;;8.38;5.25;;;11.20;99.90;;;;;;4944960;29;20209;-80
2021/10/07 05:00:45;;;;;;;6.32;4.80;;;11.10;99.90;;;;;;4940799;29;20266;-79
2021/10/07 05:03:13;;;;;;;7.93;5.00;;;11.20;99.90;;;;;;4939493;29;20781;-79
2021/10/07 05:08:24;;;;;;;10.40;5.47;;;11.20;99.90;;;;;;4939591;29;20685;-79
2021/10/07 05:10:54;;;;;;;6.05;4.30;;;11.20;99.90;;;;;;4942792;29;20630;-79
2021/10/07 05:13:24;;;;;;;6.28;5.70;;;11.20;99.90;;;;;;4944251;29;20250;-79
2021/10/07 05:15:51;;;;;;;7.15;5.05;;;11.20;99.90;;;;;;4947476;29;20263;-79
2021/10/07 05:18:23;;;;;;;8.75;5.32;;;11.20;99.90;;;;;;4947855;29;20210;-79
2021/10/07 05:20:50;;;;;;;6.97;5.72;;;11.20;99.90;;;;;;4948717;29;20264;-79
2021/10/07 05:23:17;;;;;;;8.60;5.43;;;11.20;99.90;;;;;;4946514;29;20238;-78
2021/10/07 05:25:44;;;;;;;7.40;6.70;;;11.20;99.90;;;;;;4948883;29;20274;-79
2021/10/07 05:28:11;;;;;;;7.35;5.55;;;11.20;99.90;;;;;;4947172;29;20660;-78
2021/10/07 05:30:38;;;;;;;6.32;5.57;;;11.30;99.90;;;;;;4944355;29;20304;-79
2021/10/07 05:33:05;;;;;;;6.38;5.50;;;11.20;99.90;;;;;;4942619;29;20258;-78
2021/10/07 05:35:34;;;;;;;8.90;5.90;;;11.30;99.90;;;;;;4947301;29;20300;-78
2021/10/07 05:38:01;;;;;;;7.15;5.93;;;11.30;99.90;;;;;;4944982;29;20685;-78
2021/10/07 05:40:28;;;;;;;9.32;6.20;;;11.20;99.90;;;;;;4953597;29;20636;-78
2021/10/07 05:42:55;;;;;;;10.52;6.60;;;11.20;99.90;;;;;;4956615;29;20250;-78
2021/10/07 05:45:21;;;;;;;6.60;5.38;;;11.20;99.90;;;;;;4958347;29;20273;-78
2021/10/07 05:47:49;;;;;;;7.47;6.57;;;11.30;99.90;;;;;;4958147;29;20229;-79
2021/10/07 05:50:16;;;;;;;12.57;6.95;;;11.30;99.90;;;;;;4957680;29;20233;-79
2021/10/07 05:52:44;;;;;;;6.90;6.13;;;11.30;99.90;;;;;;4956798;29;20237;-81
2021/10/07 05:55:40;;;;;;;8.95;5.80;;;11.30;99.90;;;;;;4960777;28;20209;-80
2021/10/07 05:58:54;;;;;;;11.23;6.32;;;11.30;99.90;;;;;;4954147;29;20206;-80
2021/10/07 06:01:21;;;;;;;8.32;6.22;;;11.30;99.90;;;;;;4944430;29;20198;-79
2021/10/07 06:03:48;;;;;;;6.47;5.38;;;11.40;99.90;;;;;;4947160;29;20218;-80
2021/10/07 06:06:15;;;;;;;10.05;5.78;;;11.40;99.90;;;;;;4931872;29;20231;-81
2021/10/07 06:08:43;;;;;;;6.10;5.50;;;11.40;99.90;;;;;;4952055;28;20229;-81
2021/10/07 06:11:10;;;;;;;7.65;6.20;;;11.40;99.90;;;;;;4962285;28;20214;-83
2021/10/07 06:13:37;;;;;;;12.45;7.47;;;11.50;99.90;;;;;;4960440;28;20222;-81
2021/10/07 06:16:05;;;;;;;7.88;7.07;;;11.50;99.90;;;;;;4962493;28;20199;-83
2021/10/07 06:18:32;;;;;;;6.10;5.40;;;11.60;99.90;;;;;;4955191;28;20215;-81
2021/10/07 06:20:59;;;;;;;9.07;6.10;;;11.60;99.90;;;;;;4955036;28;20548;-80
2021/10/07 06:23:26;;;;;;;10.52;6.35;;;11.60;99.90;;;;;;4956961;29;20230;-80
2021/10/07 06:25:55;;;;;;;6.97;5.85;;;11.70;99.90;;;;;;4956997;29;20655;-80
2021/10/07 06:28:22;;;;;;;8.73;5.78;;;11.70;99.90;;;;;;4947926;29;20298;-81
2021/10/07 06:30:49;;;;;;;5.90;5.28;;;11.80;99.90;;;;;;4946435;29;20207;-81
2021/10/07 06:33:15;;;;;;;6.85;5.90;;;11.90;99.90;;;;;;4946085;29;20230;-78
2021/10/07 06:35:42;;;;;;;6.40;5.80;;;11.90;99.90;;;;;;4947957;29;20207;-79
2021/10/07 06:38:09;;;;;;;7.25;5.30;;;12.00;99.90;;;;;;4937469;29;20265;-81
2021/10/07 06:40:37;;;;;;;10.15;5.95;;;12.00;99.90;;;;;;4945049;29;20199;-80
2021/10/07 06:43:05;;;;;;;11.27;5.93;;;12.00;99.90;;;;;;4946181;29;20234;-81
2021/10/07 06:45:32;;;;;;;7.22;5.82;;;12.00;99.90;;;;;;4954155;29;20230;-82
2021/10/07 06:47:59;;;;;;;8.68;5.43;;;12.10;99.90;;;;;;4957288;29;20707;-80
2021/10/07 06:50:26;;;;;;;6.10;5.32;;;12.20;99.90;;;;;;4959922;28;20220;-82
2021/10/07 06:52:53;;;;;;;6.03;5.40;;;12.20;99.90;;;;;;4946736;29;20222;-82
2021/10/07 06:55:21;;;;;;;6.38;4.72;;;12.30;99.80;;;;;;4940224;29;20265;-79
2021/10/07 06:57:48;;;;;;;4.88;3.95;;;12.30;99.30;;;;;;4934977;29;20207;-82
2021/10/07 07:00:16;;;;;;;5.30;4.38;;;12.40;98.60;;;;;;4942018;29;20699;-79
2021/10/07 07:02:43;;;;;;;5.68;4.60;;;12.60;98.00;;;;;;4941671;29;20235;-79
2021/10/07 07:05:11;;;;;;;6.28;4.85;;;12.50;96.80;;;;;;4942232;29;20301;-79
2021/10/07 07:07:38;;;;;;;6.95;4.00;;;12.60;96.70;;;;;;4941516;29;20306;-80
2021/10/07 07:10:06;;;;;;;5.13;4.43;;;12.70;96.00;;;;;;4942878;29;20481;-81
2021/10/07 07:12:33;;;;;;;5.18;4.68;;;12.80;95.30;;;;;;4950485;29;20259;-82
2021/10/07 07:15:00;;;;;;;4.05;3.72;;;12.80;93.90;;;;;;4960585;28;20245;-81
2021/10/07 07:17:28;;;;;;;5.82;4.60;;;12.80;93.60;;;;;;4951186;29;20373;-79
2021/10/07 07:19:58;;;;;;;6.60;4.72;;;12.90;92.60;;;;;;4945694;29;20218;-80
2021/10/07 07:22:25;;;;;;;5.90;4.43;;;12.90;92.50;;;;;;4943701;29;20231;-80
2021/10/07 07:24:51;;;;;;;5.68;4.25;;;13.00;92.00;;;;;;4943963;29;20547;-80
2021/10/07 07:27:18;;;;;;;6.78;4.10;;;13.10;91.50;;;;;;4944214;29;20321;-81
2021/10/07 07:29:45;;;;;;;9.50;4.90;;;13.00;91.30;;;;;;4944320;29;20214;-80
2021/10/07 07:32:12;;;;;;;4.30;3.90;;;13.10;90.90;;;;;;4945308;29;20366;-81
2021/10/07 07:34:41;;;;;;;4.40;4.00;;;13.20;90.50;;;;;;4950928;29;20213;-80
2021/10/07 07:37:08;;;;;;;4.20;3.80;;;13.20;90.10;;;;;;4960347;28;20196;-82
2021/10/07 07:39:36;;;;;;;4.93;4.40;;;13.30;89.10;;;;;;4960146;28;20235;-81
2021/10/07 07:42:03;;;;;;;5.97;4.88;;;13.30;89.70;;;;;;4960211;28;20226;-81
2021/10/07 07:44:30;;;;;;;5.38;4.38;;;13.30;88.50;;;;;;4959492;28;20221;-79
2021/10/07 07:46:58;;;;;;;8.85;5.20;;;13.30;87.70;;;;;;4958436;29;20202;-81
2021/10/07 07:49:24;;;;;;;11.00;4.72;;;13.40;87.40;;;;;;4957836;28;20203;-80
2021/10/07 07:51:53;;;;;;;5.25;4.57;;;13.40;86.00;;;;;;4945327;29;20223;-80
2021/10/07 07:54:20;;;;;;;7.10;4.38;;;13.50;86.20;;;;;;4947907;28;20207;-80
2021/10/07 07:56:47;;;;;;;7.57;5.07;;;13.40;86.20;;;;;;4956240;29;20763;-82
2021/10/07 07:59:13;;;;;;;6.80;4.53;;;13.40;85.70;;;;;;4945656;29;20593;-82
2021/10/07 08:01:41;;;;;;;8.32;4.95;;;13.50;86.60;;;;;;4954889;29;20241;-80
2021/10/07 08:04:08;;;;;;;6.50;4.40;;;13.50;85.80;;;;;;4956389;29;20207;-81
2021/10/07 08:06:35;;;;;;;5.93;4.85;;;13.50;85.80;;;;;;4955655;28;20254;-81
2021/10/07 08:09:05;;;;;;;6.32;5.22;;;13.40;85.20;;;;;;4952635;29;20254;-81
2021/10/07 08:11:37;;;;;;;5.78;4.97;;;13.30;86.40;;;;;;4944642;29;20222;-79
2021/10/07 08:14:04;;;;;;;6.65;6.05;;;13.30;86.80;;;;;;4959366;28;20196;-80
2021/10/07 08:16:31;;;;;;;11.85;6.07;;;13.20;85.40;;;;;;4958960;28;20262;-80
2021/10/07 08:18:59;;;;;;;10.27;6.00;;;13.20;85.30;;;;;;4953469;29;20298;-81
2021/10/07 08:21:26;;;;;;;7.95;5.80;;;13.20;85.50;;;;;;4943469;29;20206;-82
2021/10/07 08:23:53;;;;;;;10.77;6.57;;;13.20;86.50;;;;;;4941389;29;20216;-82
2021/10/07 08:26:22;;;;;;;6.05;5.07;;;13.30;87.10;;;;;;4943197;29;20211;-81
2021/10/07 08:28:49;;;;;;;8.27;5.63;;;13.50;86.70;;;;;;4941046;29;20227;-83
2021/10/07 08:31:16;;;;;;;12.63;7.15;;;13.50;86.00;;;;;;4952091;29;20238;-84
2021/10/07 08:33:42;;;;;;;6.78;5.80;;;13.50;84.50;;;;;;4955821;28;20224;-82
2021/10/07 08:36:09;;;;;;;8.18;6.03;;;13.50;85.20;;;;;;4954081;28;20188;-84
2021/10/07 08:38:36;;;;;;;7.38;6.10;;;13.50;84.90;;;;;;4959002;28;20228;-80
2021/10/07 08:41:03;;;;;;;6.53;5.78;;;13.50;81.80;;;;;;4943675;28;20267;-81
2021/10/07 08:43:32;;;;;;;7.30;5.60;;;13.60;81.40;;;;;;4940848;29;20251;-81
2021/10/07 08:46:05;;;;;;;7.22;5.80;;;13.60;80.30;;;;;;4940849;29;20211;-82
2021/10/07 08:48:32;;;;;;;9.90;5.90;;;13.40;80.00;;;;;;4941248;29;20319;-82
2021/10/07 08:50:59;;;;;;;8.60;6.63;;;13.30;82.20;;;;;;4940239;29;20242;-82
2021/10/07 08:53:26;;;;;;;12.82;6.53;;;13.40;83.60;;;;;;4941712;29;20256;-83
2021/10/07 08:55:53;;;;;;;8.55;6.25;;;13.40;85.20;;;;;;4940278;29;20207;-82
2021/10/07 08:58:20;;;;;;;5.90;5.40;;;13.60;84.30;;;;;;4940240;29;20208;-83
2021/10/07 09:00:48;;;;;;;5.78;5.28;;;13.70;81.70;;;;;;4932858;29;20291;-81
2021/10/07 09:03:20;;;;;;;8.25;5.63;;;13.90;80.70;;;;;;4938735;29;20228;-80
2021/10/07 09:05:47;;;;;;;9.80;5.60;;;14.00;79.90;;;;;;4930393;29;20223;-82
2021/10/07 09:08:16;;;;;;;6.67;5.50;;;14.00;79.00;;;;;;4940506;29;20278;-81
2021/10/07 09:10:46;;;;;;;6.35;5.35;;;14.20;78.30;;;;;;4941555;29;20435;-80
2021/10/07 09:13:16;;;;;;;6.53;5.80;;;14.30;78.10;;;;;;4942237;29;20233;-81
2021/10/07 09:15:47;;;;;;;8.93;5.20;;;14.40;76.20;;;;;;4942923;29;20431;-80
2021/10/07 09:18:17;;;;;;;7.05;5.57;;;14.50;75.40;;;;;;4944736;29;20235;-81
2021/10/07 09:20:49;;;;;;;6.53;5.93;;;14.40;74.30;;;;;;4951162;29;20220;-81
2021/10/07 09:23:17;;;;;;;6.55;5.60;;;14.40;73.80;;;;;;4944291;29;20842;-81
2021/10/07 09:26:06;;;;;;;7.85;5.18;;;14.50;73.30;;;;;;4946342;29;20222;-82
2021/10/07 09:28:51;;;;;;;10.20;5.83;;;14.60;71.80;;;;;;4950261;29;20316;-82
2021/10/07 09:31:24;;;;;;;7.70;5.40;;;14.20;74.10;;;;;;4944204;29;20948;-80
2021/10/07 09:33:59;;;;;;;7.82;5.45;;;14.40;73.70;;;;;;4944833;29;20463;-82
2021/10/07 09:36:29;;;;;;;6.88;6.10;;;13.60;75.70;;;;;;4944696;29;20270;-82
2021/10/07 09:39:05;;;;;;;7.47;5.40;;;13.20;79.20;;;;;;4948887;29;20186;-80
2021/10/07 09:41:33;;;;;;;6.80;6.20;;;13.40;81.30;;;;;;4939473;29;20293;-82
2021/10/07 09:44:02;;;;;;;7.63;6.40;;;13.60;79.60;;;;;;4959624;23;20323;-80
2021/10/07 09:46:41;;;;;;;7.57;5.60;;;13.40;79.40;;;;;;4946840;29;20224;-75
2021/10/07 09:49:10;;;;;;;7.50;5.32;;;13.40;79.40;;;;;;4960646;28;20276;-78
2021/10/07 09:51:39;;;;;;;5.63;4.78;;;13.70;79.70;;;;;;4954370;29;20205;-78
2021/10/07 09:54:06;;;;;;;7.40;6.05;;;14.10;78.50;;;;;;4959203;29;20235;-79
2021/10/07 09:56:34;;;;;;;7.83;4.93;;;14.30;73.90;;;;;;4959032;29;20250;-78
2021/10/07 09:59:07;;;;;;;11.15;5.40;;;14.50;71.70;;;;;;4957734;29;20465;-78
2021/10/07 10:01:34;;;;;;;7.77;6.80;;;14.40;71.60;;;;;;4956272;29;20213;-78
2021/10/07 10:04:12;;;;;;;12.02;5.88;;;14.30;71.40;;;;;;4958192;29;20538;-77
2021/10/07 10:06:40;;;;;;;7.20;6.50;;;14.00;71.20;;;;;;4954748;29;20244;-78
2021/10/07 10:09:08;;;;;;;10.17;6.20;;;14.40;71.60;;;;;;4949704;29;20232;-80
2021/10/07 10:11:34;;;;;;;8.33;6.20;;;14.80;69.20;;;;;;4952331;29;20476;-82
2021/10/07 10:14:02;;;;;;;7.45;6.15;;;14.90;69.20;;;;;;4955711;29;20478;-80
2021/10/07 10:16:30;;;;;;;7.40;6.60;;;14.80;69.80;;;;;;4954284;29;20218;-81
2021/10/07 10:19:05;;;;;;;6.90;6.20;;;14.90;67.70;;;;;;4955280;29;20996;-80
2021/10/07 10:21:36;;;;;;;7.57;6.80;;;15.00;68.20;;;;;;4941554;29;20458;-77
2021/10/07 10:24:05;;;;;;;9.85;6.97;;;14.60;69.30;;;;;;4939816;29;20527;-77
2021/10/07 10:26:32;;;;;;;7.63;6.72;;;14.30;73.60;;;;;;4938749;29;20219;-79
2021/10/07 10:28:59;;;;;;;10.93;7.28;;;14.50;71.70;;;;;;4952626;29;20240;-78
2021/10/07 10:31:32;;;;;;;7.50;5.20;;;14.60;71.80;;;;;;4939964;29;20216;-76
2021/10/07 10:34:06;;;;;;;7.40;6.38;;;14.50;69.60;;;;;;4939950;29;20532;-78
2021/10/07 10:36:38;;;;;;;9.15;5.15;;;14.50;71.70;;;;;;4939337;29;20224;-76
2021/10/07 10:39:08;;;;;;;5.63;5.10;;;14.80;69.50;;;;;;4955034;29;20272;-79
2021/10/07 10:41:44;;;;;;;7.43;5.00;;;15.00;69.40;;;;;;4949167;29;20213;-78
2021/10/07 10:44:32;;;;;;;6.65;5.13;;;14.70;67.00;;;;;;4938447;29;20326;-79
2021/10/07 10:46:59;;;;;;;5.35;4.95;;;14.70;69.80;;;;;;4943858;29;20218;-77
2021/10/07 10:49:37;;;;;;;7.25;5.22;;;14.90;68.00;;;;;;4947924;29;20232;-78
2021/10/07 10:52:13;;;;;;;9.90;5.10;;;14.80;68.60;;;;;;4948867;29;20525;-77
2021/10/07 10:54:44;;;;;;;5.80;4.97;;;14.80;68.70;;;;;;4951278;29;20426;-76
2021/10/07 10:57:28;;;;;;;7.13;5.40;;;14.60;68.50;;;;;;4949905;29;20223;-78
2021/10/07 11:00:17;;;;;;;5.77;5.27;;;15.00;65.90;;;;;;4943009;29;20470;-77
2021/10/07 11:02:45;;;;;;;6.10;4.50;;;15.10;65.40;;;;;;4943136;29;20484;-78
2021/10/07 11:05:15;;;;;;;4.63;4.27;;;15.50;63.70;;;;;;4940144;29;20512;-81
2021/10/07 11:07:44;;;;;;;4.70;4.30;;;15.80;64.00;;;;;;4940710;29;20458;-76
2021/10/07 11:10:14;;;;;;;4.67;4.03;;;16.00;60.50;;;;;;4937894;29;20468;-79
2021/10/07 11:12:49;;;;;;;4.97;4.47;;;15.60;58.10;;;;;;4925712;29;21005;-81
2021/10/07 11:18:19;;;;;;;8.47;4.90;;;15.50;60.50;;;;;;5134174;27;20577;-76
2021/10/07 11:20:46;;;;;;;4.70;4.30;;;15.40;62.20;;;;;;5132093;27;20523;-78
2021/10/07 11:23:15;;;;;;;6.63;4.20;;;15.90;61.20;;;;;;5120999;27;20452;-76
2021/10/07 11:25:47;;;;;;;3.83;3.53;;;15.80;58.90;;;;;;5111431;28;20446;-77
2021/10/07 11:28:14;;;;;;;3.70;3.40;;;15.50;59.80;;;;;;5111373;28;20817;-77
2021/10/07 11:30:44;;;;;;;3.70;3.40;;;15.30;59.40;;;;;;5123791;22;20975;-77
2021/10/07 11:33:10;;;;;;;3.80;3.50;;;15.30;58.40;;;;;;5111917;28;20450;-77
2021/10/07 11:35:40;;;;;;;4.37;3.40;;;15.10;61.00;;;;;;5114252;28;20454;-79
2021/10/07 11:38:14;;;;;;;4.27;3.83;;;15.10;62.40;;;;;;5111506;28;20478;-77
2021/10/07 11:40:50;;;;;;;6.90;3.40;;;15.30;62.00;;;;;;5111742;28;20499;-77
2021/10/07 11:43:21;;;;;;;4.20;3.80;;;15.50;61.00;;;;;;5111944;28;20804;-78
2021/10/07 11:45:49;;;;;;;4.60;3.50;;;15.70;60.30;;;;;;5113045;28;20455;-77
2021/10/07 11:48:17;;;;;;;3.67;3.40;;;16.00;58.90;;;;;;5112458;28;20446;-77
2021/10/07 11:50:47;;;;;;;4.20;3.80;;;16.00;56.10;;;;;;5111502;28;20516;-78
2021/10/07 11:53:17;;;;;;;3.93;3.63;;;15.80;59.40;;;;;;5113203;28;20454;-76
2021/10/07 11:55:48;;;;;;;5.00;3.63;;;15.60;60.80;;;;;;5112711;28;20454;-78
2021/10/07 11:58:15;;;;;;;3.80;3.40;;;15.90;58.00;;;;;;5110942;28;20464;-77
2021/10/07 12:00:47;;;;;;;3.03;2.73;;;16.10;55.60;;;;;;5112757;28;20477;-76
2021/10/07 12:03:17;;;;;;;3.77;3.40;;;16.10;53.80;;;;;;5111327;28;20533;-77
2021/10/07 12:05:50;;;;;;;3.50;3.20;;;16.20;55.00;;;;;;5111272;28;20426;-77
2021/10/07 12:08:17;;;;;;;3.10;2.80;;;16.40;54.10;;;;;;5113031;28;20487;-76
2021/10/07 12:10:46;;;;;;;2.50;2.40;;;16.30;52.20;;;;;;5113304;28;20453;-76
2021/10/07 12:13:16;;;;;;;3.00;2.77;;;15.90;49.90;;;;;;5118701;28;20830;-77
2021/10/07 12:15:47;;;;;;;2.63;2.43;;;15.60;52.50;;;;;;5117337;28;20425;-78
2021/10/07 12:18:15;;;;;;;3.80;3.50;;;15.70;51.10;;;;;;5111669;28;20525;-77
2021/10/07 12:20:57;;;;;;;4.00;3.07;;;15.90;51.60;;;;;;5118730;28;20483;-77
2021/10/07 12:23:24;;;;;;;3.43;3.00;;;16.00;52.00;;;;;;5123240;28;20986;-77
2021/10/07 12:25:56;;;;;;;2.90;2.63;;;16.00;52.80;;;;;;5144115;27;20429;-77
2021/10/07 12:28:23;;;;;;;3.47;3.20;;;15.80;52.80;;;;;;5126916;28;20478;-77
2021/10/07 12:30:53;;;;;;;2.70;2.50;;;15.50;54.40;;;;;;5115350;28;20540;-76
2021/10/07 12:33:20;;;;;;;3.20;2.90;;;15.70;53.50;;;;;;5130306;28;20461;-76
2021/10/07 12:36:00;;;;;;;3.10;2.90;;;15.90;52.90;;;;;;5106936;28;20427;-77
2021/10/07 12:38:28;;;;;;;3.63;3.00;;;16.20;53.00;;;;;;5116211;28;20481;-77
2021/10/07 12:40:58;;;;;;;4.00;3.20;;;16.50;52.00;;;;;;5102565;28;20475;-78
2021/10/07 12:43:26;;;;;;;5.10;3.30;;;16.60;51.80;;;;;;5108854;28;20455;-78
2021/10/07 12:46:04;;;;;;;2.53;2.33;;;16.50;50.60;;;;;;5107835;28;20486;-77
2021/10/07 12:48:52;;;;;;;3.20;2.97;;;16.50;49.40;;;;;;5107067;28;20542;-77
2021/10/07 12:51:22;;;;;;;2.87;2.60;;;16.50;50.00;;;;;;5105518;28;20495;-77
2021/10/07 12:53:50;;;;;;;2.80;2.60;;;16.40;50.60;;;;;;5107768;28;20414;-77
2021/10/07 12:56:19;;;;;;;2.47;2.30;;;16.60;50.30;;;;;;5106831;28;20901;-79
2021/10/07 12:58:52;;;;;;;4.10;2.53;;;16.60;50.60;;;;;;5110486;28;20462;-79
2021/10/07 13:01:21;;;;;;;3.30;2.83;;;16.60;50.10;;;;;;5117009;28;20467;-79
2021/10/07 13:04:07;;;;;;;4.30;2.50;;;16.90;49.60;;;;;;5116011;28;20494;-80
2021/10/07 13:06:36;;;;;;;3.53;3.20;;;16.60;51.00;;;;;;5116946;28;20474;-79